Time;durP1;ratioP1;P1;durP2;ratioP2;P2;SDS_P1;SDS_P2;PMS_P1;PMS_P2;Temp;Humidity;BMP_temperature;BMP_pressure;BME280_temperature;BME280_humidity;BME280_pressure;Samples;Min_cycle;Max_cycle;Signal;HPM_P1;HPM_P2
2021/05/09 00:01:05;;;;;;;24.83;20.67;;;;;;;20.28;nan;100058.38;5009562;28;20045;-74
2021/05/09 00:03:31;;;;;;;24.23;20.70;;;;;;;21.25;nan;100063.75;5016182;28;20030;-74
2021/05/09 00:05:56;;;;;;;25.85;21.67;;;;;;;20.89;nan;100060.63;5010418;28;20506;-74
2021/05/09 00:08:22;;;;;;;32.75;25.13;;;;;;;20.26;nan;100062.38;5028509;28;20041;-74
2021/05/09 00:10:47;;;;;;;23.98;21.00;;;;;;;19.36;nan;100057.47;5028528;28;20503;-74
2021/05/09 00:13:12;;;;;;;29.27;23.58;;;;;;;20.82;nan;100048.91;5026636;28;20393;-74
2021/05/09 00:15:38;;;;;;;35.10;27.58;;;;;;;20.59;nan;100041.25;5028235;28;20382;-74
2021/05/09 00:18:04;;;;;;;30.05;25.73;;;;;;;19.66;nan;100047.00;5029654;28;20038;-74
2021/05/09 00:20:30;;;;;;;42.45;29.65;;;;;;;18.88;nan;100024.13;5014127;28;20487;-74
2021/05/09 00:22:55;;;;;;;29.40;24.13;;;;;;;18.97;nan;100039.22;5029632;28;20032;-75
2021/05/09 00:25:21;;;;;;;32.88;26.25;;;;;;;20.49;nan;100029.09;5012182;28;20025;-74
2021/05/09 00:27:46;;;;;;;37.92;29.90;;;;;;;21.05;nan;100033.81;5021544;28;20041;-75
2021/05/09 00:30:12;;;;;;;30.00;25.20;;;;;;;19.46;nan;100044.25;5013777;28;20477;-75
2021/05/09 00:32:38;;;;;;;38.40;29.90;;;;;;;23.04;nan;100041.75;5031469;28;20512;-75
2021/05/09 00:35:04;;;;;;;27.00;23.42;;;;;;;20.19;nan;100022.28;5014134;28;20073;-74
2021/05/09 00:37:30;;;;;;;27.33;24.35;;;;;;;19.67;nan;100034.19;4994492;28;20532;-75
2021/05/09 00:39:55;;;;;;;30.02;25.33;;;;;;;19.29;nan;100043.03;4993987;28;20037;-75
2021/05/09 00:42:21;;;;;;;35.22;28.83;;;;;;;19.45;nan;100022.66;4993784;28;20022;-74
2021/05/09 00:44:46;;;;;;;45.60;33.33;;;;;;;21.08;nan;100017.78;5027946;28;20035;-74
2021/05/09 00:47:13;;;;;;;51.10;36.47;;;;;;;20.07;nan;100023.19;5031393;28;20049;-74
2021/05/09 00:49:39;;;;;;;32.55;25.65;;;;;;;19.90;nan;100017.38;5031343;28;20072;-75
2021/05/09 00:52:07;;;;;;;31.08;26.75;;;;;;;19.09;nan;100025.81;5031044;28;20044;-75
2021/05/09 00:54:33;;;;;;;34.65;27.15;;;;;;;19.04;nan;100016.38;5017453;28;20045;-75
2021/05/09 00:57:02;;;;;;;36.72;28.55;;;;;;;19.72;nan;100021.59;5011511;28;20437;-75
2021/05/09 00:59:33;;;;;;;40.65;30.00;;;;;;;19.89;nan;100010.22;5011819;28;20583;-75
2021/05/09 01:01:59;;;;;;;33.47;26.23;;;;;;;20.50;nan;100020.66;5012415;28;20044;-74
2021/05/09 01:04:24;;;;;;;35.72;28.42;;;;;;;20.21;nan;100013.91;5023533;28;20049;-75
2021/05/09 01:06:50;;;;;;;33.75;26.75;;;;;;;20.44;nan;100003.25;5031018;28;20034;-74
2021/05/09 01:09:15;;;;;;;39.28;30.38;;;;;;;20.51;nan;100016.03;5027537;28;20033;-74
2021/05/09 01:11:44;;;;;;;38.78;29.67;;;;;;;20.11;nan;100005.31;4994568;28;20030;-74
2021/05/09 01:14:09;;;;;;;36.08;27.35;;;;;;;20.35;nan;100004.56;5012846;28;20436;-74
2021/05/09 01:16:35;;;;;;;29.77;22.75;;;;;;;19.50;nan;100018.25;5011024;28;20482;-74
2021/05/09 01:19:00;;;;;;;30.08;22.98;;;;;;;20.31;nan;100000.59;4993088;28;20030;-75
2021/05/09 01:21:25;;;;;;;33.05;24.50;;;;;;;20.10;nan;100000.91;5001951;28;20091;-74
2021/05/09 01:23:50;;;;;;;51.33;31.27;;;;;;;20.00;nan;100008.72;5029133;28;20108;-74
2021/05/09 01:26:16;;;;;;;32.47;25.13;;;;;;;19.60;nan;100011.53;5030918;28;20021;-74
2021/05/09 01:28:41;;;;;;;46.75;28.35;;;;;;;19.67;nan;100009.66;5030140;28;20030;-74
2021/05/09 01:31:06;;;;;;;44.80;31.40;;;;;;;19.39;nan;100004.41;5006140;28;20469;-75
2021/05/09 01:33:32;;;;;;;35.05;25.42;;;;;;;18.68;nan;100008.56;4993146;28;20030;-74
2021/05/09 01:35:58;;;;;;;41.22;28.20;;;;;;;19.87;nan;99998.69;5025780;28;20072;-74
2021/05/09 01:38:23;;;;;;;33.60;25.80;;;;;;;19.43;nan;100000.22;5010609;28;20046;-74
2021/05/09 01:40:49;;;;;;;38.20;26.75;;;;;;;19.88;nan;100000.38;5011069;28;20037;-74
2021/05/09 01:43:14;;;;;;;32.55;24.88;;;;;;;19.52;nan;99988.03;5010611;28;20033;-74
2021/05/09 01:45:39;;;;;;;41.95;28.38;;;;;;;19.82;nan;100004.78;5010854;28;20040;-74
2021/05/09 01:48:05;;;;;;;38.63;26.90;;;;;;;19.76;nan;99994.72;5010392;28;20041;-74
2021/05/09 01:50:30;;;;;;;37.13;25.88;;;;;;;19.39;nan;99991.63;4997032;28;20671;-74
2021/05/09 01:52:55;;;;;;;29.75;23.58;;;;;;;20.17;nan;99982.59;4992550;28;20026;-74
2021/05/09 01:55:24;;;;;;;38.03;27.58;;;;;;;21.43;nan;99981.78;5010579;28;20112;-74
2021/05/09 01:57:49;;;;;;;36.88;25.17;;;;;;;20.49;nan;99988.97;4992453;28;20100;-74
2021/05/09 02:00:18;;;;;;;51.97;34.15;;;;;;;20.48;nan;99987.28;4992571;28;20030;-74
2021/05/09 02:02:44;;;;;;;42.78;28.98;;;;;;;20.81;nan;99988.97;5026981;28;20121;-74
2021/05/09 02:05:10;;;;;;;31.92;24.05;;;;;;;19.72;nan;99986.13;5029795;28;20120;-75
2021/05/09 02:07:36;;;;;;;29.58;24.15;;;;;;;19.85;nan;99992.59;5011953;28;20029;-74
2021/05/09 02:10:06;;;;;;;31.67;24.42;;;;;;;19.49;nan;99983.00;5029741;28;20044;-74
2021/05/09 02:12:31;;;;;;;41.33;29.45;;;;;;;19.89;nan;99980.19;5013011;28;20044;-75
2021/05/09 02:14:56;;;;;;;34.97;24.05;;;;;;;20.14;nan;99980.31;5010233;28;20034;-74
2021/05/09 02:17:22;;;;;;;23.58;18.05;;;;;;;19.40;nan;99981.53;5010144;28;20394;-74
2021/05/09 02:19:48;;;;;;;27.42;19.35;;;;;;;18.83;nan;99987.44;5024832;28;20073;-74
2021/05/09 02:22:14;;;;;;;34.63;25.88;;;;;;;19.63;nan;99978.38;5015573;28;20026;-74
2021/05/09 02:24:41;;;;;;;30.40;24.05;;;;;;;19.99;nan;99983.34;5010235;28;20036;-74
2021/05/09 02:27:07;;;;;;;33.13;23.70;;;;;;;19.78;nan;99976.25;5009902;28;20037;-74
2021/05/09 02:29:32;;;;;;;35.50;25.73;;;;;;;20.27;nan;99979.44;5009842;28;20030;-74
2021/05/09 02:31:57;;;;;;;30.75;22.80;;;;;;;20.22;nan;99977.34;5003490;28;20057;-74
2021/05/09 02:34:22;;;;;;;24.08;19.83;;;;;;;20.16;nan;99979.03;5011593;28;20030;-74
2021/05/09 02:36:48;;;;;;;29.38;22.15;;;;;;;19.89;nan;99980.19;5029124;28;20033;-75
2021/05/09 02:39:13;;;;;;;26.40;20.65;;;;;;;20.14;nan;99977.56;5011417;28;20025;-74
2021/05/09 02:41:39;;;;;;;34.25;25.35;;;;;;;20.59;nan;99980.31;5019502;28;20041;-74
2021/05/09 02:44:05;;;;;;;26.33;20.58;;;;;;;21.61;nan;99978.22;5009766;28;20565;-75
2021/05/09 02:46:31;;;;;;;28.38;21.38;;;;;;;20.83;nan;99984.16;5009665;28;20398;-74
2021/05/09 02:48:56;;;;;;;26.75;20.00;;;;;;;21.29;nan;99993.88;4991660;28;20114;-74
2021/05/09 02:51:21;;;;;;;23.85;19.83;;;;;;;21.06;nan;99984.41;5011600;28;20033;-75
2021/05/09 02:53:46;;;;;;;31.08;22.85;;;;;;;21.60;nan;99981.19;5010468;28;20038;-75
2021/05/09 02:56:12;;;;;;;34.75;23.52;;;;;;;21.76;nan;99972.38;5024282;28;20468;-74
2021/05/09 02:58:37;;;;;;;24.25;17.58;;;;;;;21.14;nan;99979.69;5009337;28;20026;-74
2021/05/09 03:01:03;;;;;;;24.45;18.20;;;;;;;21.02;nan;99980.41;4994393;28;20029;-74
2021/05/09 03:03:29;;;;;;;30.70;24.02;;;;;;;21.82;nan;99976.91;5010732;28;20030;-75
2021/05/09 03:05:54;;;;;;;26.38;19.70;;;;;;;21.53;nan;99982.09;5010911;28;20079;-74
2021/05/09 03:08:20;;;;;;;24.55;19.55;;;;;;;21.44;nan;99979.88;5029042;28;20076;-74
2021/05/09 03:10:45;;;;;;;25.00;19.92;;;;;;;21.52;nan;99977.69;5028197;28;20025;-75
2021/05/09 03:13:10;;;;;;;21.23;18.98;;;;;;;21.21;nan;99975.84;5009203;28;20478;-74
2021/05/09 03:15:36;;;;;;;24.50;19.33;;;;;;;21.57;nan;99980.56;5009261;28;20486;-74
2021/05/09 03:18:01;;;;;;;31.63;20.52;;;;;;;21.80;nan;99979.91;5024653;28;20477;-75
2021/05/09 03:20:27;;;;;;;31.02;22.85;;;;;;;22.13;nan;99977.81;5008813;28;20037;-75
2021/05/09 03:22:52;;;;;;;36.72;23.60;;;;;;;21.44;nan;99980.72;5023741;28;20033;-75
2021/05/09 03:25:17;;;;;;;33.22;22.60;;;;;;;22.00;nan;99984.31;5028549;28;20079;-75
2021/05/09 03:27:43;;;;;;;21.95;18.75;;;;;;;21.12;nan;99977.19;5029099;28;20036;-75
2021/05/09 03:30:09;;;;;;;28.63;23.00;;;;;;;21.64;nan;99971.44;5010816;28;20573;-74
2021/05/09 03:32:34;;;;;;;25.90;21.15;;;;;;;21.70;nan;99971.41;5024613;28;20111;-75
2021/05/09 03:34:59;;;;;;;34.15;24.17;;;;;;;22.15;nan;99970.22;5015170;28;20447;-74
2021/05/09 03:37:25;;;;;;;23.05;19.85;;;;;;;21.42;nan;99976.53;5008968;28;20054;-74
2021/05/09 03:39:50;;;;;;;29.05;22.35;;;;;;;21.70;nan;99976.00;5008870;28;20481;-74
2021/05/09 03:42:15;;;;;;;36.22;25.17;;;;;;;22.00;nan;99968.69;5023945;28;20026;-75
2021/05/09 03:44:41;;;;;;;45.03;26.42;;;;;;;21.84;nan;99972.06;5018175;28;20036;-74
2021/05/09 03:47:06;;;;;;;34.88;25.80;;;;;;;22.39;nan;99973.94;5028437;28;20116;-75
2021/05/09 03:49:31;;;;;;;32.65;24.55;;;;;;;21.92;nan;99968.19;5029055;28;20044;-74
2021/05/09 03:51:57;;;;;;;29.98;22.13;;;;;;;21.65;nan;99976.72;5029712;28;20041;-74
2021/05/09 03:54:22;;;;;;;30.27;22.23;;;;;;;21.99;nan;99979.91;5007581;28;20497;-74
2021/05/09 03:56:47;;;;;;;40.25;24.30;;;;;;;22.08;nan;99984.00;5017552;28;20067;-74
2021/05/09 03:59:13;;;;;;;34.08;21.75;;;;;;;21.94;nan;99985.22;4996420;28;20385;-74
2021/05/09 04:01:39;;;;;;;31.25;23.85;;;;;;;22.03;nan;99981.94;5027605;28;20161;-74
2021/05/09 04:04:05;;;;;;;35.75;24.08;;;;;;;22.39;nan;99988.47;5016507;28;20029;-75
2021/05/09 04:06:30;;;;;;;30.25;23.73;;;;;;;22.07;nan;99978.75;5032034;28;20029;-74
2021/05/09 04:08:55;;;;;;;30.27;21.92;;;;;;;21.74;nan;99980.81;5032592;28;20489;-74
2021/05/09 04:11:20;;;;;;;33.25;24.30;;;;;;;22.36;nan;99985.34;5012644;28;20026;-75
2021/05/09 04:13:47;;;;;;;27.63;21.13;;;;;;;21.84;nan;99979.44;5012372;28;20124;-74
2021/05/09 04:16:13;;;;;;;31.00;23.05;;;;;;;22.25;nan;99989.69;5012375;28;20036;-75
2021/05/09 04:18:38;;;;;;;22.55;17.15;;;;;;;21.35;nan;99992.97;4994668;28;20124;-75
2021/05/09 04:21:04;;;;;;;31.92;21.63;;;;;;;21.52;nan;99996.84;5013202;28;20161;-75
2021/05/09 04:23:29;;;;;;;25.92;20.73;;;;;;;21.51;nan;99997.06;5012261;28;20510;-75
2021/05/09 04:25:55;;;;;;;22.60;18.08;;;;;;;21.37;nan;99996.34;5030753;28;20043;-75
2021/05/09 04:28:21;;;;;;;24.30;15.77;;;;;;;21.85;nan;99998.38;5031696;28;20026;-74
2021/05/09 04:30:47;;;;;;;20.45;17.38;;;;;;;21.87;nan;100007.19;5030173;28;20099;-74
2021/05/09 04:33:13;;;;;;;23.88;17.42;;;;;;;21.47;nan;100007.63;5031833;28;20117;-75
2021/05/09 04:35:41;;;;;;;24.88;18.80;;;;;;;22.07;nan;100006.97;5015313;28;20109;-74
2021/05/09 04:38:07;;;;;;;22.70;17.35;;;;;;;21.93;nan;100009.03;4994211;28;20022;-75
2021/05/09 04:40:32;;;;;;;28.00;18.80;;;;;;;21.66;nan;100005.75;5012785;28;20536;-75
2021/05/09 04:43:08;;;;;;;20.33;16.65;;;;;;;21.52;nan;99999.56;5011848;28;20088;-75
2021/05/09 04:45:34;;;;;;;23.25;18.10;;;;;;;21.71;nan;100000.44;5011664;28;20140;-75
2021/05/09 04:48:00;;;;;;;19.25;16.00;;;;;;;21.51;nan;100005.25;4994407;28;20117;-75
2021/05/09 04:50:26;;;;;;;19.35;15.35;;;;;;;21.32;nan;100016.13;4994986;28;20080;-75
2021/05/09 04:52:51;;;;;;;23.27;17.20;;;;;;;21.43;nan;100005.56;5024503;28;20029;-74
2021/05/09 04:55:16;;;;;;;27.88;19.08;;;;;;;21.88;nan;100011.59;5018401;28;20034;-75
2021/05/09 04:57:42;;;;;;;25.60;16.75;;;;;;;21.67;nan;100001.09;5011598;28;20033;-75
2021/05/09 05:00:08;;;;;;;21.00;15.57;;;;;;;21.54;nan;100002.06;4993671;28;20036;-75
2021/05/09 05:02:33;;;;;;;22.95;15.90;;;;;;;21.63;nan;100005.34;5026310;28;20509;-75
2021/05/09 05:04:58;;;;;;;21.90;15.82;;;;;;;22.06;nan;100010.75;4994098;28;20514;-75
2021/05/09 05:07:24;;;;;;;18.67;15.20;;;;;;;21.79;nan;100007.50;4993537;28;20474;-74
2021/05/09 05:09:49;;;;;;;16.50;13.82;;;;;;;21.71;nan;100000.44;5025295;28;20033;-75
2021/05/09 05:12:15;;;;;;;18.95;15.68;;;;;;;22.27;nan;100001.28;5031151;28;20482;-75
2021/05/09 05:14:40;;;;;;;19.73;15.85;;;;;;;22.53;nan;100011.06;5029386;28;20146;-75
2021/05/09 05:17:06;;;;;;;23.02;16.63;;;;;;;22.27;nan;100000.44;5030972;28;20109;-75
2021/05/09 05:19:32;;;;;;;17.92;16.00;;;;;;;22.62;nan;100009.66;5026252;28;20440;-75
2021/05/09 05:21:58;;;;;;;17.10;13.98;;;;;;;22.45;nan;100011.38;5010930;28;20120;-75
2021/05/09 05:24:23;;;;;;;19.58;14.52;;;;;;;22.40;nan;100009.31;5012334;28;20117;-75
2021/05/09 05:26:49;;;;;;;18.00;14.93;;;;;;;22.70;nan;100014.78;5012659;28;20053;-75
2021/05/09 05:29:14;;;;;;;19.45;12.52;;;;;;;22.68;nan;100010.59;5031146;28;20036;-75
2021/05/09 05:31:39;;;;;;;17.00;14.23;;;;;;;22.62;nan;100015.13;5030466;28;20029;-75
2021/05/09 05:34:05;;;;;;;17.75;13.70;;;;;;;23.13;nan;100021.97;5017840;28;20029;-74
2021/05/09 05:36:31;;;;;;;18.23;16.27;;;;;;;23.11;nan;100012.28;5028392;28;20033;-74
2021/05/09 05:38:58;;;;;;;14.98;12.15;;;;;;;22.68;nan;100002.38;5030571;28;20032;-74
2021/05/09 05:41:23;;;;;;;15.23;12.05;;;;;;;22.10;nan;100006.53;5030416;28;20482;-74
2021/05/09 05:43:48;;;;;;;18.98;13.90;;;;;;;22.56;nan;99999.63;5028924;28;20036;-74
2021/05/09 05:46:14;;;;;;;15.23;12.68;;;;;;;22.59;nan;100003.78;5026881;28;20321;-75
2021/05/09 05:48:40;;;;;;;15.60;11.80;;;;;;;22.79;nan;100014.47;5012238;28;20108;-74
2021/05/09 05:51:05;;;;;;;13.00;11.45;;;;;;;22.40;nan;100005.72;5005897;28;20021;-75
2021/05/09 05:53:30;;;;;;;13.80;10.48;;;;;;;22.68;nan;100005.13;5010580;28;20076;-74
2021/05/09 05:55:56;;;;;;;15.80;12.15;;;;;;;23.30;nan;100005.66;5014820;28;20029;-75
2021/05/09 05:58:22;;;;;;;17.83;13.50;;;;;;;23.88;nan;99994.94;5030436;28;20041;-75
2021/05/09 06:00:48;;;;;;;17.05;13.10;;;;;;;23.97;nan;99994.31;5028267;28;20080;-74
2021/05/09 06:03:13;;;;;;;16.15;11.82;;;;;;;23.67;nan;99999.09;5029958;28;20114;-75
2021/05/09 06:05:39;;;;;;;13.48;10.82;;;;;;;24.11;nan;99996.78;5024296;28;20037;-74
2021/05/09 06:08:05;;;;;;;17.33;10.10;;;;;;;23.77;nan;100000.19;4997032;28;20033;-74
2021/05/09 06:10:30;;;;;;;14.82;11.77;;;;;;;23.57;nan;99999.72;5009616;28;20032;-74
2021/05/09 06:12:56;;;;;;;12.60;9.82;;;;;;;23.64;nan;100005.91;4992199;28;20026;-75
2021/05/09 06:15:22;;;;;;;17.23;10.95;;;;;;;24.16;nan;100007.88;5023937;28;20462;-74
2021/05/09 06:17:48;;;;;;;16.33;10.93;;;;;;;23.31;nan;100007.31;4999663;28;20068;-75
2021/05/09 06:20:13;;;;;;;14.45;9.95;;;;;;;23.68;nan;100009.81;5027834;28;20465;-74
2021/05/09 06:22:38;;;;;;;12.70;10.95;;;;;;;23.81;nan;100004.13;5010238;28;20083;-75
2021/05/09 06:25:05;;;;;;;11.05;9.25;;;;;;;22.98;nan;100013.34;5014806;28;20375;-74
2021/05/09 06:27:30;;;;;;;14.05;10.48;;;;;;;23.48;nan;100012.09;5011109;28;20033;-75
2021/05/09 06:29:57;;;;;;;12.20;9.20;;;;;;;24.10;nan;100008.84;5013713;28;20083;-75
2021/05/09 06:32:22;;;;;;;14.20;11.00;;;;;;;23.87;nan;100005.06;5021651;28;20061;-75
2021/05/09 06:34:47;;;;;;;12.48;9.20;;;;;;;24.26;nan;100019.06;5002208;28;20060;-75
2021/05/09 06:37:13;;;;;;;11.70;9.07;;;;;;;24.11;nan;100005.03;5019691;28;20037;-75
2021/05/09 06:39:39;;;;;;;14.80;10.65;;;;;;;23.97;nan;100007.22;5010520;28;20032;-74
2021/05/09 06:42:06;;;;;;;11.60;8.85;;;;;;;24.05;nan;100012.31;5021799;28;20094;-74
2021/05/09 06:44:35;;;;;;;11.68;10.00;;;;;;;23.44;nan;100017.22;5029016;28;20025;-75
2021/05/09 06:47:02;;;;;;;10.85;9.75;;;;;;;24.56;nan;100015.31;5007293;28;20029;-75
2021/05/09 06:49:28;;;;;;;9.88;8.32;;;;;;;24.34;nan;100018.69;4993392;28;20092;-75
2021/05/09 06:51:56;;;;;;;11.15;9.60;;;;;;;24.85;nan;100011.44;5009168;28;20034;-75
2021/05/09 06:54:21;;;;;;;12.60;8.93;;;;;;;25.39;nan;100014.59;5009377;28;20030;-75
2021/05/09 06:56:49;;;;;;;13.57;8.20;;;;;;;24.92;nan;100017.63;4991289;28;20444;-74
2021/05/09 06:59:14;;;;;;;12.73;9.50;;;;;;;25.62;nan;100019.06;5010453;28;20038;-74
2021/05/09 07:01:39;;;;;;;12.20;7.90;;;;;;;24.33;nan;100022.50;5009342;28;20446;-74
2021/05/09 07:04:04;;;;;;;12.57;9.85;;;;;;;25.20;nan;100026.94;5023290;28;20117;-73
2021/05/09 07:06:30;;;;;;;13.05;8.38;;;;;;;24.76;nan;100021.16;5014752;28;20042;-73
2021/05/09 07:08:55;;;;;;;14.13;8.85;;;;;;;24.50;nan;100017.94;5007652;28;20069;-73
2021/05/09 07:11:20;;;;;;;12.73;8.48;;;;;;;24.94;nan;100014.63;4990187;28;20026;-74
2021/05/09 07:13:46;;;;;;;12.82;9.75;;;;;;;25.59;nan;100019.59;4987863;28;20030;-74
2021/05/09 07:16:12;;;;;;;9.90;7.82;;;;;;;24.75;nan;100017.59;4988079;28;20546;-73
2021/05/09 07:18:38;;;;;;;8.85;7.50;;;;;;;25.12;nan;100017.13;4988130;28;20034;-75
2021/05/09 07:21:11;;;;;;;11.48;8.02;;;;;;;24.85;nan;100016.09;5008679;28;20448;-74
2021/05/09 07:23:38;;;;;;;12.70;9.20;;;;;;;25.34;nan;100013.66;5009605;28;20064;-74
2021/05/09 07:26:04;;;;;;;9.00;7.50;;;;;;;25.74;nan;100018.13;5029365;28;20404;-74
2021/05/09 07:28:29;;;;;;;10.23;8.05;;;;;;;25.74;nan;100018.13;5035321;28;20029;-74
2021/05/09 07:30:54;;;;;;;12.43;9.05;;;;;;;25.73;nan;100011.78;5033144;28;20108;-74
2021/05/09 07:33:20;;;;;;;10.98;8.52;;;;;;;25.05;nan;100021.16;5017450;28;20037;-74
2021/05/09 07:35:45;;;;;;;10.65;8.77;;;;;;;25.54;nan;100008.47;5022919;28;20034;-74
2021/05/09 07:38:13;;;;;;;11.05;8.52;;;;;;;25.67;nan;100005.38;5024104;28;20358;-74
2021/05/09 07:40:39;;;;;;;11.73;8.65;;;;;;;25.78;nan;100000.03;5032961;28;20041;-74
2021/05/09 07:43:06;;;;;;;16.17;7.30;;;;;;;26.80;nan;100004.88;5015217;28;20073;-74
2021/05/09 07:45:33;;;;;;;13.80;8.55;;;;;;;26.62;nan;100007.16;5015416;28;20061;-75
2021/05/09 07:47:58;;;;;;;13.10;8.70;;;;;;;26.57;nan;100011.53;5020768;28;20040;-74
2021/05/09 07:50:25;;;;;;;14.18;7.85;;;;;;;26.49;nan;100014.75;5031408;28;20029;-74
2021/05/09 07:52:52;;;;;;;10.82;7.53;;;;;;;26.41;nan;100020.69;5029425;28;20038;-74
2021/05/09 07:55:17;;;;;;;12.43;6.70;;;;;;;26.99;nan;100019.09;4997472;28;20060;-75
2021/05/09 07:57:44;;;;;;;15.57;7.47;;;;;;;26.48;nan;100024.09;5014631;28;20033;-74
2021/05/09 08:00:13;;;;;;;9.13;6.95;;;;;;;27.35;nan;100024.97;5000672;28;20129;-74
2021/05/09 08:02:44;;;;;;;11.02;7.25;;;;;;;27.77;nan;100013.13;5018198;28;20033;-82
2021/05/09 08:07:52;;;;;;;10.73;6.55;;;;;;;27.87;nan;100021.47;5067558;23;20083;-82
2021/05/09 08:10:23;;;;;;;10.75;7.60;;;;;;;27.98;nan;100021.53;5043950;28;20117;-83
2021/05/09 08:12:50;;;;;;;10.65;7.65;;;;;;;28.20;nan;100027.75;5038772;28;20037;-83
2021/05/09 08:15:29;;;;;;;11.93;6.63;;;;;;;28.12;nan;100033.78;5030576;28;20053;-83
2021/05/09 08:17:59;;;;;;;9.45;7.85;;;;;;;28.23;nan;100029.97;5017308;28;20545;-84
2021/05/09 08:20:25;;;;;;;7.65;6.68;;;;;;;27.78;nan;100020.31;5034765;28;20056;-82
2021/05/09 08:22:51;;;;;;;15.00;7.38;;;;;;;27.73;nan;100023.88;5050628;28;20030;-80
2021/05/09 08:25:18;;;;;;;10.55;7.03;;;;;;;28.78;nan;100027.69;5033873;28;20021;-82
2021/05/09 08:27:45;;;;;;;11.30;6.32;;;;;;;27.94;nan;100024.00;5048512;28;20136;-83
2021/05/09 08:30:12;;;;;;;7.82;6.43;;;;;;;27.47;nan;100028.38;5056435;28;20033;-82
2021/05/09 08:32:42;;;;;;;12.40;7.45;;;;;;;27.78;nan;100031.38;5056658;28;20491;-84
2021/05/09 08:35:11;;;;;;;10.18;6.95;;;;;;;28.47;nan;100011.00;5038178;28;20952;-81
2021/05/09 08:37:40;;;;;;;11.45;6.05;;;;;;;28.19;nan;100015.00;5028660;28;20396;-82
2021/05/09 08:40:09;;;;;;;10.88;6.30;;;;;;;28.45;nan;100010.44;5050928;28;20033;-83
2021/05/09 08:42:35;;;;;;;7.70;5.93;;;;;;;28.73;nan;100017.41;5047503;28;20519;-82
2021/05/09 08:45:00;;;;;;;10.35;7.03;;;;;;;28.79;nan;100015.50;5044887;28;20035;-83
2021/05/09 08:47:37;;;;;;;8.02;6.03;;;;;;;28.15;nan;100023.00;5056809;28;20127;-82
2021/05/09 08:50:14;;;;;;;10.10;6.30;;;;;;;28.96;nan;100018.03;5060141;28;20033;-83
2021/05/09 08:52:40;;;;;;;8.32;6.82;;;;;;;29.16;nan;100015.28;5059520;28;20100;-82
2021/05/09 08:55:09;;;;;;;10.23;6.25;;;;;;;28.84;nan;100002.50;5060436;28;20032;-82
2021/05/09 08:57:34;;;;;;;7.85;6.25;;;;;;;29.17;nan;100005.88;5051975;28;20112;-82
2021/05/09 09:00:00;;;;;;;9.32;6.20;;;;;;;28.84;nan;100010.81;5057706;28;20103;-82
2021/05/09 09:02:26;;;;;;;9.32;6.00;;;;;;;29.14;nan;100000.03;5056822;28;20554;-82
2021/05/09 09:04:56;;;;;;;10.10;6.60;;;;;;;29.43;nan;100008.63;5054458;28;20543;-83
2021/05/09 09:07:22;;;;;;;8.85;5.68;;;;;;;28.76;nan;99994.72;5031859;28;20064;-82
2021/05/09 09:09:50;;;;;;;10.18;5.82;;;;;;;29.23;nan;99999.22;5039314;28;20044;-82
2021/05/09 09:12:17;;;;;;;10.65;8.68;;;;;;;29.13;nan;99992.84;5060251;23;20013;-84
2021/05/09 09:17:22;;;;;;;14.93;6.55;;;;;;;29.56;nan;99977.56;4697952;22;20049;-81
2021/05/09 09:20:06;;;;;;;9.23;6.25;;;;;;;29.76;nan;99982.28;5032397;28;20112;-80
2021/05/09 09:22:49;;;;;;;7.28;5.07;;;;;;;29.24;nan;99980.66;5014500;28;20554;-83
2021/05/09 09:25:17;;;;;;;8.38;5.85;;;;;;;29.58;nan;99986.44;5013096;28;20536;-80
2021/05/09 09:27:52;;;;;;;12.57;4.88;;;;;;;28.96;nan;99979.25;5041518;28;20075;-83
2021/05/09 09:30:20;;;;;;;8.65;4.88;;;;;;;29.55;nan;99967.59;5032334;28;20017;-83
2021/05/09 09:33:09;;;;;;;8.40;5.07;;;;;;;28.99;nan;99967.63;5040254;28;20040;-82
2021/05/09 09:35:35;;;;;;;9.05;4.28;;;;;;;29.71;nan;99974.78;5037941;28;20037;-83
2021/05/09 09:38:02;;;;;;;7.00;4.30;;;;;;;29.66;nan;99971.19;5036071;28;20061;-83
2021/05/09 09:40:27;;;;;;;11.48;4.68;;;;;;;29.69;nan;99965.94;5018841;28;20060;-82
2021/05/09 09:42:53;;;;;;;5.65;3.90;;;;;;;29.60;nan;99964.81;5036180;28;20500;-83
2021/05/09 09:45:28;;;;;;;8.60;4.50;;;;;;;30.13;nan;99958.84;5034138;28;20032;-82
2021/05/09 09:47:54;;;;;;;7.00;3.80;;;;;;;29.66;nan;99958.19;5017212;28;20086;-82
2021/05/09 09:50:47;;;;;;;7.50;4.35;;;;;;;29.62;nan;99957.06;5013946;28;20025;-82
2021/05/09 09:53:40;;;;;;;8.43;4.45;;;;;;;29.60;nan;99950.13;5013233;28;20029;-82
2021/05/09 09:56:10;;;;;;;6.35;4.63;;;;;;;29.93;nan;99952.25;5014262;28;20041;-83
2021/05/09 09:58:44;;;;;;;8.63;4.32;;;;;;;29.64;nan;99951.25;5021451;28;20094;-83
2021/05/09 10:01:11;;;;;;;4.63;3.55;;;;;;;29.86;nan;99942.59;5020640;28;20480;-83
2021/05/09 10:03:36;;;;;;;6.82;3.90;;;;;;;29.84;nan;99948.41;5019206;28;20029;-83
2021/05/09 10:06:02;;;;;;;7.90;4.60;;;;;;;29.10;nan;99944.38;5035590;28;20108;-82
2021/05/09 10:08:28;;;;;;;10.00;4.80;;;;;;;30.00;nan;99950.03;5042871;28;20033;-83
2021/05/09 10:10:54;;;;;;;6.03;4.32;;;;;;;30.25;nan;99947.44;5054673;28;20432;-82
2021/05/09 10:15:53;;;;;;;17.17;7.15;;;;;;;30.57;nan;99946.94;5067935;23;20057;-82
2021/05/09 10:18:19;;;;;;;8.75;7.72;;;;;;;31.13;nan;99950.16;5035288;28;20037;-80
2021/05/09 10:20:45;;;;;;;23.25;16.88;;;;;;;30.25;nan;99947.44;5012439;28;20444;-75
2021/05/09 10:23:12;;;;;;;6.93;3.50;;;;;;;30.63;nan;99946.63;5030731;28;20120;-79
2021/05/09 10:25:46;;;;;;;5.05;3.47;;;;;;;30.33;nan;99932.94;5031649;28;20033;-80
2021/05/09 10:28:13;;;;;;;5.38;3.33;;;;;;;29.33;nan;99931.91;5032492;28;20017;-79
2021/05/09 10:30:46;;;;;;;6.88;4.32;;;;;;;30.45;nan;99934.25;5030726;28;20541;-79
2021/05/09 10:33:40;;;;;;;6.38;4.18;;;;;;;30.38;nan;99952.34;5046844;28;20022;-80
2021/05/09 10:36:30;;;;;;;7.60;3.75;;;;;;;29.13;nan;99946.59;5034620;28;20042;-79
2021/05/09 10:39:11;;;;;;;7.13;3.50;;;;;;;29.66;nan;99957.34;5029069;28;20054;-78
2021/05/09 10:42:00;;;;;;;8.20;3.50;;;;;;;29.72;nan;99959.84;5035172;28;20049;-78
2021/05/09 10:44:37;;;;;;;10.98;3.80;;;;;;;28.61;nan;99955.97;5034466;28;20037;-78
2021/05/09 10:47:04;;;;;;;6.10;3.03;;;;;;;30.68;nan;99966.03;5014846;28;20486;-79
2021/05/09 10:49:30;;;;;;;6.72;2.75;;;;;;;29.55;nan;99959.28;5010109;28;20485;-78
2021/05/09 10:51:56;;;;;;;8.60;3.30;;;;;;;29.23;nan;99956.84;5031348;28;20112;-79
2021/05/09 10:54:24;;;;;;;4.53;2.85;;;;;;;30.33;nan;99953.19;5049399;28;20042;-79
2021/05/09 10:56:51;;;;;;;9.23;3.60;;;;;;;30.34;nan;99949.31;5036744;28;20089;-79
2021/05/09 10:59:17;;;;;;;13.65;3.08;;;;;;;29.55;nan;99962.06;5037325;28;20034;-79
2021/05/09 11:01:42;;;;;;;8.60;4.55;;;;;;;29.64;nan;99971.47;5011689;28;20478;-78
2021/05/09 11:04:12;;;;;;;12.75;8.40;;;;;;;30.41;nan;99958.16;5035244;28;20041;-80
2021/05/09 11:06:39;;;;;;;13.73;6.43;;;;;;;29.96;nan;99979.41;5033424;28;20464;-80
2021/05/09 11:09:15;;;;;;;6.10;3.28;;;;;;;30.67;nan;99975.47;5030919;28;20102;-81
2021/05/09 11:11:40;;;;;;;8.48;2.85;;;;;;;30.59;nan;99973.31;5016028;28;20029;-81
2021/05/09 11:14:07;;;;;;;6.43;2.85;;;;;;;30.99;nan;99965.81;5034656;28;20033;-79
2021/05/09 11:16:36;;;;;;;4.30;2.60;;;;;;;30.45;nan;99989.75;5036160;28;20115;-79
2021/05/09 11:19:17;;;;;;;5.75;2.25;;;;;;;30.16;nan;99958.28;5033279;28;20030;-79
2021/05/09 11:21:56;;;;;;;2.63;2.00;;;;;;;30.29;nan;99988.19;5033877;28;20033;-78
2021/05/09 11:24:31;;;;;;;3.28;2.55;;;;;;;31.26;nan;99973.63;5034467;28;20029;-78
2021/05/09 11:27:19;;;;;;;5.95;2.90;;;;;;;31.09;nan;99987.94;5031748;28;20412;-75
2021/05/09 11:29:50;;;;;;;4.05;2.10;;;;;;;30.58;nan;100004.97;5015357;28;20150;-76
2021/05/09 11:32:18;;;;;;;4.82;2.05;;;;;;;30.06;nan;99995.19;5030268;28;20043;-79
2021/05/09 11:34:52;;;;;;;3.13;2.10;;;;;;;30.97;nan;99989.44;5030029;28;20069;-77
2021/05/09 11:37:18;;;;;;;4.97;2.25;;;;;;;30.95;nan;99992.53;5030499;28;20033;-79
2021/05/09 11:39:44;;;;;;;3.20;2.33;;;;;;;31.05;nan;99991.59;5012024;28;20036;-78
2021/05/09 11:42:17;;;;;;;5.57;2.13;;;;;;;31.05;nan;99981.31;5023125;28;20417;-77